Broadmoor Village, California
Current Conditions -  °F | °C
As of 5:56 AM on Thursday 30 Oct 2014 (Local Time) from KSFO Reporting Station
Clear Clear  
Wind Chill: 65°   Ceiling: Unl
Heat Index: 65°   Visibility: 10mi
Dew Point: 61°   Wind: 5mph
Humidity: 87%   Direction: 10°N
Pressure: 29.92"   Gusts: NA
Location:  37.6817°N, 122.48°W
Report Text: KSFO 301256Z 01004KT 10SM CLR 18/16 A2992 RMK AO2 SLP132 T01830161
Loading
Personal Weather Stations






























Interactive Weather Map
Tropical Storm Tracking
New forecast layout! Learn more

10-Day Weather Forecast

Advertisements
Track Severe Weather on mobile